createdAt,value
2022-09-30T00:00:12.549Z,0.00
2022-09-30T00:01:12.542Z,0.00
2022-09-30T00:02:12.605Z,0.00
2022-09-30T00:03:12.602Z,0.00
2022-09-30T00:04:12.516Z,0.00
2022-09-30T00:05:12.506Z,0.00
2022-09-30T00:06:13.171Z,0.00
2022-09-30T00:07:12.511Z,0.00
2022-09-30T00:08:12.690Z,0.00
2022-09-30T00:09:12.485Z,0.00
2022-09-30T00:10:12.439Z,0.00
2022-09-30T00:11:12.460Z,0.00
2022-09-30T00:12:15.171Z,0.00
2022-09-30T00:13:12.419Z,0.00
2022-09-30T00:14:13.169Z,0.00
2022-09-30T00:15:12.413Z,0.00
2022-09-30T00:16:12.464Z,0.00
2022-09-30T00:17:12.380Z,0.00
2022-09-30T00:18:12.345Z,0.00
2022-09-30T00:19:12.348Z,0.00
2022-09-30T00:20:15.177Z,0.00
2022-09-30T00:21:12.326Z,0.00
2022-09-30T00:22:12.309Z,0.00
2022-09-30T00:23:12.334Z,0.00
2022-09-30T00:24:12.288Z,0.00
2022-09-30T00:25:12.288Z,0.00
2022-09-30T00:26:13.167Z,0.00
2022-09-30T00:27:15.177Z,0.00
2022-09-30T00:28:12.268Z,0.00
2022-09-30T00:29:12.234Z,0.00
2022-09-30T00:30:12.230Z,0.00
2022-09-30T00:31:12.283Z,0.00
2022-09-30T00:32:13.179Z,0.00
2022-09-30T00:33:12.192Z,0.00
2022-09-30T00:34:12.209Z,0.00
2022-09-30T00:35:12.170Z,0.00
2022-09-30T00:36:12.167Z,0.00
2022-09-30T00:37:12.147Z,0.00
2022-09-30T00:38:14.693Z,0.00
2022-09-30T00:39:12.133Z,0.00
2022-09-30T00:40:12.127Z,0.00
2022-09-30T00:41:12.135Z,0.00
2022-09-30T00:42:12.106Z,0.00
2022-09-30T00:43:12.673Z,0.00
2022-09-30T00:44:12.079Z,0.00
2022-09-30T00:45:12.672Z,0.00
2022-09-30T00:46:12.694Z,0.00
2022-09-30T00:47:12.043Z,0.00
2022-09-30T00:48:12.676Z,0.00
2022-09-30T00:49:12.015Z,0.00
2022-09-30T00:50:12.026Z,0.00
2022-09-30T00:51:11.994Z,0.00
2022-09-30T00:52:11.996Z,0.00
2022-09-30T00:53:11.994Z,0.00
2022-09-30T00:54:13.103Z,0.00
2022-09-30T00:55:11.949Z,0.00
2022-09-30T00:56:11.967Z,0.00
2022-09-30T00:57:11.929Z,0.00
2022-09-30T00:58:11.919Z,0.00
2022-09-30T00:59:11.917Z,0.00
2022-09-30T01:00:12.206Z,0.00
2022-09-30T01:01:11.924Z,0.00
2022-09-30T01:02:11.917Z,0.00
2022-09-30T01:03:11.867Z,0.00
2022-09-30T01:04:11.862Z,0.00
2022-09-30T01:05:12.675Z,0.00
2022-09-30T01:06:11.881Z,0.00
2022-09-30T01:07:11.842Z,0.00
2022-09-30T01:08:11.841Z,0.00
2022-09-30T01:09:11.837Z,0.00
2022-09-30T01:10:11.862Z,0.00
2022-09-30T01:11:11.783Z,0.00
2022-09-30T01:12:11.775Z,0.00
2022-09-30T01:13:11.778Z,0.00
2022-09-30T01:14:11.757Z,0.00
2022-09-30T01:15:11.744Z,0.00
2022-09-30T01:16:11.753Z,0.00
2022-09-30T01:17:11.731Z,0.00
2022-09-30T01:18:11.707Z,0.00
2022-09-30T01:19:11.715Z,0.00
2022-09-30T01:20:11.694Z,0.00
2022-09-30T01:21:11.685Z,0.00
2022-09-30T01:22:11.667Z,0.00
2022-09-30T01:23:11.672Z,0.00
2022-09-30T01:24:11.647Z,0.00
2022-09-30T01:25:11.656Z,0.00
2022-09-30T01:26:11.636Z,0.00
2022-09-30T01:27:11.594Z,0.00
2022-09-30T01:28:11.604Z,0.00
2022-09-30T01:29:11.605Z,0.00
2022-09-30T01:30:11.570Z,0.00
2022-09-30T01:31:11.623Z,0.00
2022-09-30T01:32:11.555Z,0.00
2022-09-30T01:33:12.613Z,0.00
2022-09-30T01:34:11.540Z,0.00
2022-09-30T01:35:11.533Z,0.00
2022-09-30T01:36:11.529Z,0.00
2022-09-30T01:37:11.512Z,0.00
2022-09-30T01:38:11.496Z,0.00
2022-09-30T01:39:11.509Z,0.00
2022-09-30T01:40:11.466Z,0.00
2022-09-30T01:41:11.511Z,0.00
2022-09-30T01:42:11.483Z,0.00
2022-09-30T01:43:11.448Z,0.00
2022-09-30T01:44:11.440Z,0.00
2022-09-30T01:45:11.418Z,0.00
2022-09-30T01:46:11.573Z,0.00
2022-09-30T01:47:11.699Z,0.00
2022-09-30T01:48:12.171Z,0.00
2022-09-30T01:49:11.382Z,0.00
2022-09-30T01:50:11.371Z,0.00
2022-09-30T01:51:11.353Z,0.00
2022-09-30T01:52:11.355Z,0.00
2022-09-30T01:53:11.350Z,0.00
2022-09-30T01:54:11.322Z,0.00
2022-09-30T01:55:11.320Z,0.00
2022-09-30T01:56:11.318Z,0.00
2022-09-30T01:57:11.295Z,0.00
2022-09-30T01:58:11.291Z,0.00
2022-09-30T01:59:11.291Z,0.00
2022-09-30T02:00:11.265Z,0.00
2022-09-30T02:01:11.333Z,0.00
2022-09-30T02:02:11.287Z,0.00
2022-09-30T02:03:11.230Z,0.00
2022-09-30T02:04:11.232Z,0.00
2022-09-30T02:05:11.222Z,0.00
2022-09-30T02:06:11.195Z,0.00
2022-09-30T02:07:11.185Z,0.00
2022-09-30T02:08:11.178Z,0.00
2022-09-30T02:09:11.235Z,0.00
2022-09-30T02:10:11.152Z,0.00
2022-09-30T02:11:11.152Z,0.00
2022-09-30T02:12:11.133Z,0.00
2022-09-30T02:13:11.111Z,0.00
2022-09-30T02:14:11.127Z,0.00
2022-09-30T02:15:11.092Z,0.00
2022-09-30T02:16:11.140Z,0.00
2022-09-30T02:17:11.667Z,0.00
2022-09-30T02:18:11.064Z,0.00
2022-09-30T02:19:11.668Z,0.00
2022-09-30T02:20:11.052Z,0.00
2022-09-30T02:21:11.033Z,0.00
2022-09-30T02:22:11.048Z,0.00
2022-09-30T02:23:11.018Z,0.00
2022-09-30T02:24:11.670Z,0.00
2022-09-30T02:25:11.209Z,0.00
2022-09-30T02:26:10.983Z,0.00
2022-09-30T02:27:10.963Z,0.00
2022-09-30T02:28:10.964Z,0.00
2022-09-30T02:29:10.937Z,0.00
2022-09-30T02:30:11.278Z,0.00
2022-09-30T02:31:10.990Z,0.00
2022-09-30T02:32:10.909Z,0.00
2022-09-30T02:33:11.674Z,0.00
2022-09-30T02:34:10.897Z,0.00
2022-09-30T02:35:10.881Z,0.00
2022-09-30T02:36:10.883Z,0.00
2022-09-30T02:37:10.861Z,0.00
2022-09-30T02:38:10.847Z,0.00
2022-09-30T02:39:10.856Z,0.00
2022-09-30T02:40:11.680Z,0.00
2022-09-30T02:41:10.850Z,0.00
2022-09-30T02:42:10.803Z,0.00
2022-09-30T02:43:10.785Z,0.00
2022-09-30T02:44:10.787Z,0.00
2022-09-30T02:45:10.817Z,0.00
2022-09-30T02:46:10.816Z,0.00
2022-09-30T02:47:13.680Z,0.00
2022-09-30T02:48:10.740Z,0.00
2022-09-30T02:49:10.739Z,0.00
2022-09-30T02:50:11.694Z,0.00
2022-09-30T02:51:10.743Z,0.00
2022-09-30T02:52:10.700Z,0.00
2022-09-30T02:53:10.714Z,0.00
2022-09-30T02:54:10.680Z,0.00
2022-09-30T02:55:11.173Z,0.00
2022-09-30T02:56:10.657Z,0.00
2022-09-30T02:57:10.664Z,0.00
2022-09-30T02:58:10.638Z,0.00
2022-09-30T02:59:10.657Z,0.00
2022-09-30T03:00:13.170Z,0.00
2022-09-30T03:01:10.695Z,0.00
2022-09-30T03:02:10.693Z,0.00
2022-09-30T03:03:10.580Z,0.00
2022-09-30T03:04:10.576Z,0.00
2022-09-30T03:05:10.613Z,0.00
2022-09-30T03:06:10.555Z,0.00
2022-09-30T03:07:10.541Z,0.00
2022-09-30T03:08:10.528Z,0.00
2022-09-30T03:09:12.836Z,0.00
2022-09-30T03:10:10.549Z,0.00
2022-09-30T03:11:10.508Z,0.00
2022-09-30T03:12:10.486Z,0.00
2022-09-30T03:13:10.483Z,0.00
2022-09-30T03:14:11.191Z,0.00
2022-09-30T03:15:10.468Z,0.00
2022-09-30T03:16:13.930Z,0.00
2022-09-30T03:17:10.434Z,0.00
2022-09-30T03:18:10.782Z,0.00
2022-09-30T03:19:13.172Z,0.00
2022-09-30T03:20:10.461Z,0.00
2022-09-30T03:21:10.387Z,0.00
2022-09-30T03:22:10.400Z,0.00
2022-09-30T03:23:10.395Z,0.00
2022-09-30T03:24:11.168Z,0.00
2022-09-30T03:25:10.706Z,0.00
2022-09-30T03:26:10.335Z,0.00
2022-09-30T03:27:10.326Z,0.00
2022-09-30T03:28:10.335Z,0.00
2022-09-30T03:29:13.179Z,0.00
2022-09-30T03:30:10.298Z,0.00
2022-09-30T03:31:10.428Z,0.00
2022-09-30T03:32:10.276Z,0.00
2022-09-30T03:33:10.282Z,0.00
2022-09-30T03:34:11.193Z,0.00
2022-09-30T03:35:10.253Z,0.00
2022-09-30T03:36:10.240Z,0.00
2022-09-30T03:37:10.233Z,0.00
2022-09-30T03:38:17.176Z,0.00
2022-09-30T03:39:10.197Z,0.00
2022-09-30T03:40:11.183Z,0.00
2022-09-30T03:41:10.175Z,0.00
2022-09-30T03:42:10.168Z,0.00
2022-09-30T03:43:10.166Z,0.00
2022-09-30T03:44:10.679Z,0.00
2022-09-30T03:45:10.135Z,0.00
2022-09-30T03:46:10.747Z,0.00
2022-09-30T03:47:10.110Z,0.00
2022-09-30T03:48:10.249Z,0.00
2022-09-30T03:49:10.678Z,0.00
2022-09-30T03:50:10.692Z,0.00
2022-09-30T03:51:10.075Z,0.00
2022-09-30T03:52:10.050Z,0.00
2022-09-30T03:53:10.053Z,0.00
2022-09-30T03:54:10.052Z,0.00
2022-09-30T03:55:10.035Z,0.00
2022-09-30T03:56:10.017Z,0.00
2022-09-30T03:57:10.000Z,0.00
2022-09-30T03:58:09.991Z,0.00
2022-09-30T03:59:10.670Z,0.00
2022-09-30T04:00:09.986Z,0.00
2022-09-30T04:01:09.996Z,0.00
2022-09-30T04:02:10.013Z,0.00
2022-09-30T04:03:09.941Z,0.00
2022-09-30T04:04:09.930Z,0.00
2022-09-30T04:05:09.912Z,0.00
2022-09-30T04:06:09.950Z,0.00
2022-09-30T04:07:09.887Z,0.00
2022-09-30T04:08:09.893Z,0.00
2022-09-30T04:09:09.984Z,0.00
2022-09-30T04:10:09.871Z,0.00
2022-09-30T04:11:09.890Z,0.00
2022-09-30T04:12:09.852Z,0.00
2022-09-30T04:13:09.853Z,0.00
2022-09-30T04:14:09.822Z,0.00
2022-09-30T04:15:09.806Z,0.00
2022-09-30T04:16:09.855Z,0.00
2022-09-30T04:17:09.789Z,0.00
2022-09-30T04:18:09.788Z,0.00
2022-09-30T04:19:09.768Z,0.00
2022-09-30T04:20:09.747Z,0.00
2022-09-30T04:21:09.767Z,0.00
2022-09-30T04:22:09.742Z,0.00
2022-09-30T04:23:09.725Z,0.00
2022-09-30T04:24:09.804Z,0.00
2022-09-30T04:25:09.707Z,0.00
2022-09-30T04:26:09.686Z,0.00
2022-09-30T04:27:09.724Z,0.00
2022-09-30T04:28:09.688Z,0.00
2022-09-30T04:29:09.676Z,0.00
2022-09-30T04:30:09.656Z,0.00
2022-09-30T04:31:09.658Z,0.00
2022-09-30T04:32:09.679Z,0.00
2022-09-30T04:33:09.613Z,0.00
2022-09-30T04:34:09.623Z,0.00
2022-09-30T04:35:09.724Z,0.00
2022-09-30T04:36:16.179Z,0.00
2022-09-30T04:37:11.041Z,0.00
2022-09-30T04:38:09.725Z,0.00
2022-09-30T04:39:09.543Z,0.00
2022-09-30T04:40:09.543Z,0.00
2022-09-30T04:41:09.547Z,0.00
2022-09-30T04:42:09.511Z,0.00
2022-09-30T04:43:09.501Z,0.00
2022-09-30T04:44:09.517Z,0.00
2022-09-30T04:45:09.679Z,0.00
2022-09-30T04:46:12.265Z,0.00
2022-09-30T04:47:09.465Z,0.00
2022-09-30T04:48:09.440Z,0.00
2022-09-30T04:49:09.726Z,0.00
2022-09-30T04:50:09.447Z,0.00
2022-09-30T04:51:09.427Z,0.00
2022-09-30T04:52:09.503Z,0.00
2022-09-30T04:53:09.401Z,0.00
2022-09-30T04:54:09.423Z,0.00
2022-09-30T04:55:09.388Z,0.00
2022-09-30T04:56:09.365Z,0.00
2022-09-30T04:57:09.385Z,0.00
2022-09-30T04:58:09.364Z,0.00
2022-09-30T04:59:09.347Z,0.00
2022-09-30T05:00:09.333Z,0.00
2022-09-30T05:01:09.342Z,0.00
2022-09-30T05:02:09.359Z,4.00
2022-09-30T05:03:09.283Z,4.00
2022-09-30T05:04:09.287Z,0.00
2022-09-30T05:05:09.273Z,4.00
2022-09-30T05:06:09.255Z,4.00
2022-09-30T05:07:09.245Z,4.00
2022-09-30T05:08:12.707Z,8.00
2022-09-30T05:09:16.328Z,8.00
2022-09-30T05:10:12.181Z,8.00
2022-09-30T05:11:09.207Z,8.00
2022-09-30T05:12:09.191Z,12.00
2022-09-30T05:13:09.184Z,12.00
2022-09-30T05:14:09.199Z,16.00
2022-09-30T05:15:09.162Z,16.00
2022-09-30T05:16:09.183Z,20.00
2022-09-30T05:17:09.164Z,24.00
2022-09-30T05:18:09.690Z,28.00
2022-09-30T05:19:09.131Z,32.00
2022-09-30T05:20:09.133Z,32.00
2022-09-30T05:21:09.686Z,40.00
2022-09-30T05:22:09.671Z,44.00
2022-09-30T05:23:10.116Z,48.00
2022-09-30T05:24:09.054Z,56.00
2022-09-30T05:25:09.085Z,64.00
2022-09-30T05:26:12.250Z,68.00
2022-09-30T05:27:09.033Z,76.00
2022-09-30T05:28:09.684Z,88.00
2022-09-30T05:29:09.033Z,96.00
2022-09-30T05:30:09.002Z,104.00
2022-09-30T05:31:09.105Z,112.00
2022-09-30T05:32:08.972Z,124.00
2022-09-30T05:33:08.960Z,136.00
2022-09-30T05:34:08.958Z,148.00
2022-09-30T05:35:08.949Z,156.00
2022-09-30T05:36:08.933Z,168.00
2022-09-30T05:37:08.946Z,184.00
2022-09-30T05:38:08.905Z,192.00
2022-09-30T05:39:08.897Z,208.00
2022-09-30T05:40:08.911Z,220.00
2022-09-30T05:41:08.922Z,232.00
2022-09-30T05:42:13.259Z,248.00
2022-09-30T05:43:09.844Z,260.00
2022-09-30T05:44:08.837Z,276.00
2022-09-30T05:45:08.836Z,288.00
2022-09-30T05:46:08.838Z,304.00
2022-09-30T05:47:08.937Z,320.00
2022-09-30T05:48:08.794Z,332.00
2022-09-30T05:49:08.788Z,352.00
2022-09-30T05:50:08.781Z,364.00
2022-09-30T05:51:08.767Z,376.00
2022-09-30T05:52:08.776Z,392.00
2022-09-30T05:53:11.672Z,412.00
2022-09-30T05:54:08.741Z,424.00
2022-09-30T05:55:08.717Z,440.00
2022-09-30T05:56:08.720Z,456.00
2022-09-30T05:57:08.750Z,472.00
2022-09-30T05:58:08.706Z,492.00
2022-09-30T05:59:08.690Z,504.00
2022-09-30T06:00:09.167Z,520.00
2022-09-30T06:01:13.257Z,536.00
2022-09-30T06:02:09.808Z,552.00
2022-09-30T06:03:08.733Z,568.00
2022-09-30T06:04:08.626Z,580.00
2022-09-30T06:05:08.612Z,596.00
2022-09-30T06:06:08.613Z,612.00
2022-09-30T06:07:10.578Z,628.00
2022-09-30T06:08:08.597Z,640.00
2022-09-30T06:09:08.631Z,656.00
2022-09-30T06:10:08.570Z,672.00
2022-09-30T06:11:08.550Z,688.00
2022-09-30T06:12:08.540Z,700.00
2022-09-30T06:13:15.184Z,716.00
2022-09-30T06:14:08.530Z,728.00
2022-09-30T06:15:11.178Z,748.00
2022-09-30T06:16:08.554Z,760.00
2022-09-30T06:17:08.478Z,776.00
2022-09-30T06:18:13.676Z,792.00
2022-09-30T06:19:09.485Z,804.00
2022-09-30T06:20:08.468Z,816.00
2022-09-30T06:21:08.709Z,832.00
2022-09-30T06:22:09.170Z,844.00
2022-09-30T06:23:08.419Z,856.00
2022-09-30T06:24:08.401Z,868.00
2022-09-30T06:25:08.396Z,880.00
2022-09-30T06:26:08.394Z,892.00
2022-09-30T06:27:08.693Z,904.00
2022-09-30T06:28:08.369Z,920.00
2022-09-30T06:29:08.423Z,936.00
2022-09-30T06:30:08.371Z,948.00
2022-09-30T06:31:08.343Z,960.00
2022-09-30T06:32:08.351Z,976.00
2022-09-30T06:33:08.344Z,988.00
2022-09-30T06:34:08.299Z,1000.00
2022-09-30T06:35:08.350Z,1012.00
2022-09-30T06:36:08.286Z,1016.00
2022-09-30T06:37:08.271Z,1024.00
2022-09-30T06:38:08.262Z,1032.00
2022-09-30T06:39:12.912Z,1044.00
2022-09-30T06:40:09.250Z,1052.00
2022-09-30T06:41:10.200Z,1064.00
2022-09-30T06:42:08.207Z,1072.00
2022-09-30T06:43:08.193Z,1080.00
2022-09-30T06:44:08.267Z,1088.00
2022-09-30T06:45:08.230Z,1096.00
2022-09-30T06:46:15.401Z,1104.00
2022-09-30T06:47:20.279Z,1116.00
2022-09-30T06:48:09.221Z,1124.00
2022-09-30T06:49:13.730Z,1136.00
2022-09-30T06:50:16.684Z,1140.00
2022-09-30T06:51:11.673Z,1152.00
2022-09-30T06:52:08.111Z,1160.00
2022-09-30T06:53:08.087Z,1168.00
2022-09-30T06:54:08.118Z,1176.00
2022-09-30T06:55:08.087Z,1192.00
2022-09-30T06:56:08.062Z,1200.00
2022-09-30T06:57:08.038Z,1208.00
2022-09-30T06:58:08.038Z,1216.00
2022-09-30T06:59:08.019Z,1220.00
2022-09-30T07:00:08.037Z,1228.00
2022-09-30T07:01:08.103Z,1240.00
2022-09-30T07:02:08.065Z,1248.00
2022-09-30T07:03:07.981Z,1260.00
2022-09-30T07:04:07.978Z,1268.00
2022-09-30T07:05:07.966Z,1280.00
2022-09-30T07:06:07.969Z,1288.00
2022-09-30T07:07:08.670Z,1292.00
2022-09-30T07:08:07.926Z,1296.00
2022-09-30T07:09:08.043Z,1304.00
2022-09-30T07:10:07.928Z,1312.00
2022-09-30T07:11:07.905Z,1320.00
2022-09-30T07:12:10.692Z,1328.00
2022-09-30T07:13:07.896Z,1340.00
2022-09-30T07:14:08.944Z,1348.00
2022-09-30T07:15:12.809Z,1356.00
2022-09-30T07:16:08.941Z,1364.00
2022-09-30T07:17:07.857Z,1372.00
2022-09-30T07:18:07.828Z,1380.00
2022-09-30T07:19:07.826Z,1388.00
2022-09-30T07:20:08.680Z,1396.00
2022-09-30T07:21:07.782Z,1404.00
2022-09-30T07:22:07.783Z,1408.00
2022-09-30T07:23:07.771Z,1416.00
2022-09-30T07:24:07.782Z,1420.00
2022-09-30T07:25:14.672Z,1428.00
2022-09-30T07:26:07.740Z,1436.00
2022-09-30T07:27:07.714Z,1444.00
2022-09-30T07:28:07.736Z,1444.00
2022-09-30T07:29:14.720Z,1448.00
2022-09-30T07:30:11.259Z,1456.00
2022-09-30T07:31:31.516Z,1464.00
2022-09-30T07:32:08.698Z,1472.00
2022-09-30T07:33:07.690Z,1476.00
2022-09-30T07:34:07.813Z,1488.00
2022-09-30T07:35:08.170Z,1500.00
2022-09-30T07:36:07.633Z,1508.00
2022-09-30T07:37:07.611Z,1524.00
2022-09-30T07:38:07.670Z,1532.00
2022-09-30T07:39:07.638Z,1544.00
2022-09-30T07:40:07.592Z,1552.00
2022-09-30T07:41:07.574Z,1552.00
2022-09-30T07:42:07.561Z,1548.00
2022-09-30T07:43:07.539Z,1556.00
2022-09-30T07:44:07.549Z,1560.00
2022-09-30T07:45:08.180Z,1568.00
2022-09-30T07:46:07.542Z,1576.00
2022-09-30T07:47:07.522Z,1580.00
2022-09-30T07:48:08.168Z,1584.00
2022-09-30T07:49:07.518Z,1588.00
2022-09-30T07:50:07.471Z,1596.00
2022-09-30T07:51:07.463Z,1600.00
2022-09-30T07:52:08.176Z,1604.00
2022-09-30T07:53:07.455Z,1604.00
2022-09-30T07:54:07.444Z,1608.00
2022-09-30T07:55:07.412Z,1616.00
2022-09-30T07:56:07.428Z,1624.00
2022-09-30T07:57:11.350Z,1628.00
2022-09-30T07:58:07.390Z,1644.00
2022-09-30T07:59:07.367Z,1660.00
2022-09-30T08:00:29.816Z,1676.00
2022-09-30T08:01:08.437Z,1684.00
2022-09-30T08:02:07.372Z,1688.00
2022-09-30T08:03:07.355Z,1692.00
2022-09-30T08:04:08.184Z,1684.00
2022-09-30T08:05:07.415Z,1668.00
2022-09-30T08:06:07.293Z,1664.00
2022-09-30T08:07:07.285Z,1668.00
2022-09-30T08:08:07.273Z,1672.00
2022-09-30T08:09:07.322Z,1676.00
2022-09-30T08:10:07.279Z,1688.00
2022-09-30T08:11:07.240Z,1692.00
2022-09-30T08:12:07.226Z,1692.00
2022-09-30T08:13:07.249Z,1688.00
2022-09-30T08:14:07.207Z,1684.00
2022-09-30T08:15:07.218Z,1680.00
2022-09-30T08:16:07.254Z,1684.00
2022-09-30T08:17:07.186Z,1688.00
2022-09-30T08:18:07.179Z,1696.00
2022-09-30T08:19:07.147Z,1692.00
2022-09-30T08:20:12.358Z,1692.00
2022-09-30T08:21:08.210Z,1680.00
2022-09-30T08:22:07.123Z,1676.00
2022-09-30T08:23:07.201Z,1672.00
2022-09-30T08:24:07.108Z,1676.00
2022-09-30T08:25:07.670Z,1680.00
2022-09-30T08:26:07.069Z,1680.00
2022-09-30T08:27:07.120Z,1676.00
2022-09-30T08:28:07.670Z,1676.00
2022-09-30T08:29:07.069Z,1676.00
2022-09-30T08:30:07.027Z,1676.00
2022-09-30T08:31:07.028Z,1680.00
2022-09-30T08:32:07.071Z,1684.00
2022-09-30T08:33:09.677Z,1688.00
2022-09-30T08:34:06.998Z,1696.00
2022-09-30T08:35:08.086Z,1696.00
2022-09-30T08:36:06.964Z,1708.00
2022-09-30T08:37:09.531Z,1708.00
2022-09-30T08:38:06.939Z,1716.00
2022-09-30T08:39:06.934Z,1720.00
2022-09-30T08:40:06.920Z,1728.00
2022-09-30T08:41:06.939Z,1732.00
2022-09-30T08:42:32.790Z,1744.00
2022-09-30T08:43:07.891Z,1760.00
2022-09-30T08:44:06.875Z,1772.00
2022-09-30T08:45:06.872Z,1776.00
2022-09-30T08:46:06.906Z,1784.00
2022-09-30T08:47:06.873Z,1788.00
2022-09-30T08:48:06.927Z,1788.00
2022-09-30T08:49:06.854Z,1800.00
2022-09-30T08:50:06.809Z,1796.00
2022-09-30T08:51:06.822Z,1808.00
2022-09-30T08:52:08.299Z,1812.00
2022-09-30T08:53:07.220Z,1816.00
2022-09-30T08:54:06.773Z,1800.00
2022-09-30T08:55:07.668Z,1796.00
2022-09-30T08:56:13.690Z,1796.00
2022-09-30T08:57:06.734Z,1796.00
2022-09-30T08:58:09.765Z,1800.00
2022-09-30T08:59:06.731Z,1800.00
2022-09-30T09:00:06.706Z,1800.00
2022-09-30T09:01:06.765Z,1812.00
2022-09-30T09:02:12.034Z,1836.00
2022-09-30T09:03:07.672Z,1888.00
2022-09-30T09:04:06.705Z,1972.00
2022-09-30T09:05:06.652Z,2060.00
2022-09-30T09:06:06.636Z,2152.00
2022-09-30T09:07:06.619Z,2240.00
2022-09-30T09:08:06.611Z,2320.00
2022-09-30T09:09:06.627Z,2384.00
2022-09-30T09:10:06.612Z,2440.00
2022-09-30T09:11:06.582Z,2488.00
2022-09-30T09:12:06.595Z,2540.00
2022-09-30T09:13:06.567Z,2576.00
2022-09-30T09:14:06.547Z,2628.00
2022-09-30T09:15:06.546Z,2676.00
2022-09-30T09:16:06.776Z,2728.00
2022-09-30T09:17:10.623Z,2752.00
2022-09-30T09:18:24.340Z,2776.00
2022-09-30T09:19:07.492Z,2788.00
2022-09-30T09:20:06.486Z,2792.00
2022-09-30T09:21:06.507Z,2812.00
2022-09-30T09:22:07.174Z,2816.00
2022-09-30T09:23:07.537Z,2832.00
2022-09-30T09:24:06.441Z,2828.00
2022-09-30T09:25:06.461Z,2836.00
2022-09-30T09:26:06.416Z,2836.00
2022-09-30T09:27:06.405Z,2828.00
2022-09-30T09:28:06.460Z,2824.00
2022-09-30T09:29:06.403Z,2824.00
2022-09-30T09:30:06.383Z,2816.00
2022-09-30T09:31:09.171Z,2804.00
2022-09-30T09:32:06.419Z,2788.00
2022-09-30T09:33:06.342Z,2780.00
2022-09-30T09:34:06.350Z,2772.00
2022-09-30T09:35:06.329Z,2756.00
2022-09-30T09:36:13.185Z,2756.00
2022-09-30T09:37:07.178Z,2756.00
2022-09-30T09:38:06.301Z,2744.00
2022-09-30T09:39:06.278Z,2752.00
2022-09-30T09:40:06.301Z,2728.00
2022-09-30T09:41:06.277Z,2708.00
2022-09-30T09:42:09.184Z,2692.00
2022-09-30T09:43:07.174Z,2692.00
2022-09-30T09:44:06.227Z,2668.00
2022-09-30T09:45:06.227Z,2660.00
2022-09-30T09:46:06.264Z,2656.00
2022-09-30T09:47:07.175Z,2660.00
2022-09-30T09:48:06.173Z,2660.00
2022-09-30T09:49:06.169Z,2628.00
2022-09-30T09:50:06.177Z,2604.00
2022-09-30T09:51:06.143Z,2588.00
2022-09-30T09:52:06.159Z,2584.00
2022-09-30T09:53:06.125Z,2576.00
2022-09-30T09:54:06.114Z,2572.00
2022-09-30T09:55:08.672Z,2568.00
2022-09-30T09:56:06.097Z,2568.00
2022-09-30T09:57:06.698Z,2568.00
2022-09-30T09:58:06.107Z,2568.00
2022-09-30T09:59:06.074Z,2560.00
2022-09-30T10:00:06.050Z,2556.00
2022-09-30T10:01:08.955Z,2540.00
2022-09-30T10:02:06.057Z,2528.00
2022-09-30T10:03:06.024Z,2528.00
2022-09-30T10:04:07.012Z,2504.00
2022-09-30T10:05:06.205Z,2504.00
2022-09-30T10:06:05.988Z,2480.00
2022-09-30T10:07:05.982Z,2488.00
2022-09-30T10:08:05.975Z,2484.00
2022-09-30T10:09:05.947Z,2472.00
2022-09-30T10:10:05.946Z,2480.00
2022-09-30T10:11:05.923Z,2500.00
2022-09-30T10:12:05.930Z,2476.00
2022-09-30T10:13:05.918Z,2468.00
2022-09-30T10:14:06.203Z,2464.00
2022-09-30T10:15:05.899Z,2452.00
2022-09-30T10:16:05.927Z,2452.00
2022-09-30T10:17:06.694Z,2424.00
2022-09-30T10:18:05.867Z,2420.00
2022-09-30T10:19:09.522Z,2424.00
2022-09-30T10:20:20.678Z,2412.00
2022-09-30T10:21:05.826Z,2388.00
2022-09-30T10:22:05.821Z,2400.00
2022-09-30T10:23:06.683Z,2408.00
2022-09-30T10:24:05.790Z,2400.00
2022-09-30T10:25:05.770Z,2388.00
2022-09-30T10:26:06.683Z,2364.00
2022-09-30T10:27:05.757Z,2404.00
2022-09-30T10:28:06.320Z,2376.00
2022-09-30T10:29:05.764Z,2344.00
2022-09-30T10:30:05.723Z,2336.00
2022-09-30T10:31:08.776Z,2332.00
2022-09-30T10:32:05.728Z,2308.00
2022-09-30T10:33:05.684Z,2312.00
2022-09-30T10:34:05.696Z,2308.00
2022-09-30T10:35:05.662Z,2292.00
2022-09-30T10:36:05.648Z,2380.00
2022-09-30T10:37:05.649Z,2408.00
2022-09-30T10:38:05.742Z,2424.00
2022-09-30T10:39:07.044Z,2460.00
2022-09-30T10:40:05.632Z,2452.00
2022-09-30T10:41:05.608Z,2428.00
2022-09-30T10:42:05.593Z,2372.00
2022-09-30T10:43:06.185Z,2348.00
2022-09-30T10:44:05.576Z,2100.00
2022-09-30T10:45:05.729Z,2388.00
2022-09-30T10:46:25.012Z,2212.00
2022-09-30T10:47:06.598Z,2436.00
2022-09-30T10:48:05.525Z,2800.00
2022-09-30T10:49:05.602Z,2516.00
2022-09-30T10:50:05.506Z,2308.00
2022-09-30T10:51:05.525Z,2448.00
2022-09-30T10:52:05.482Z,2212.00
2022-09-30T10:53:05.481Z,2568.00
2022-09-30T10:54:05.465Z,2652.00
2022-09-30T10:55:09.423Z,2052.00
2022-09-30T10:56:06.455Z,2852.00
2022-09-30T10:57:05.427Z,2680.00
2022-09-30T10:58:05.417Z,2748.00
2022-09-30T10:59:05.407Z,2904.00
2022-09-30T11:00:05.399Z,3232.00
2022-09-30T11:01:05.491Z,4252.00
2022-09-30T11:02:06.173Z,4576.00
2022-09-30T11:03:05.403Z,4548.00
2022-09-30T11:04:05.347Z,4144.00
2022-09-30T11:05:05.351Z,2932.00
2022-09-30T11:06:05.326Z,3124.00
2022-09-30T11:07:05.322Z,3456.00
2022-09-30T11:08:05.318Z,4232.00
2022-09-30T11:09:05.296Z,4184.00
2022-09-30T11:10:05.277Z,3968.00
2022-09-30T11:11:08.730Z,3820.00
2022-09-30T11:12:05.265Z,4028.00
2022-09-30T11:13:05.250Z,4320.00
2022-09-30T11:14:05.262Z,4800.00
2022-09-30T11:15:05.229Z,3568.00
2022-09-30T11:16:05.301Z,3112.00
2022-09-30T11:17:05.230Z,3076.00
2022-09-30T11:18:06.182Z,3280.00
2022-09-30T11:19:05.205Z,2816.00
2022-09-30T11:20:05.183Z,2628.00
2022-09-30T11:21:07.689Z,2984.00
2022-09-30T11:22:05.148Z,2392.00
2022-09-30T11:23:05.141Z,2516.00
2022-09-30T11:24:05.128Z,2996.00
2022-09-30T11:25:10.865Z,2952.00
2022-09-30T11:26:06.216Z,2864.00
2022-09-30T11:27:05.092Z,2828.00
2022-09-30T11:28:05.764Z,2744.00
2022-09-30T11:29:05.106Z,2676.00
2022-09-30T11:30:05.070Z,4484.00
2022-09-30T11:31:07.133Z,2992.00
2022-09-30T11:32:05.200Z,4844.00
2022-09-30T11:33:05.080Z,5196.00
2022-09-30T11:34:05.025Z,5180.00
2022-09-30T11:35:05.022Z,3804.00
2022-09-30T11:36:04.999Z,4304.00
2022-09-30T11:37:04.984Z,5888.00
2022-09-30T11:38:07.691Z,5700.00
2022-09-30T11:39:04.966Z,6000.00
2022-09-30T11:40:04.977Z,6524.00
2022-09-30T11:41:05.211Z,6868.00
2022-09-30T11:42:04.938Z,6260.00
2022-09-30T11:43:08.085Z,5764.00
2022-09-30T11:44:04.906Z,5472.00
2022-09-30T11:45:04.908Z,5404.00
2022-09-30T11:46:04.917Z,5184.00
2022-09-30T11:47:04.905Z,3456.00
2022-09-30T11:48:04.866Z,5316.00
2022-09-30T11:49:05.716Z,5168.00
2022-09-30T11:50:04.964Z,5104.00
2022-09-30T11:51:04.840Z,5024.00
2022-09-30T11:52:04.820Z,5168.00
2022-09-30T11:53:04.830Z,5656.00
2022-09-30T11:54:04.799Z,5944.00
2022-09-30T11:55:04.803Z,5740.00
2022-09-30T11:56:04.843Z,6376.00
2022-09-30T11:57:04.766Z,6408.00
2022-09-30T11:58:22.483Z,6564.00
2022-09-30T11:59:05.779Z,6620.00
2022-09-30T12:00:04.743Z,6460.00
2022-09-30T12:01:04.714Z,5892.00
2022-09-30T12:02:04.786Z,6292.00
2022-09-30T12:03:09.272Z,5712.00
2022-09-30T12:04:05.685Z,4992.00
2022-09-30T12:05:04.715Z,3032.00
2022-09-30T12:06:04.672Z,3092.00
2022-09-30T12:07:04.674Z,3280.00
2022-09-30T12:08:04.644Z,3748.00
2022-09-30T12:09:04.635Z,3864.00
2022-09-30T12:10:04.623Z,5792.00
2022-09-30T12:11:04.638Z,5924.00
2022-09-30T12:12:04.603Z,6208.00
2022-09-30T12:13:04.586Z,4400.00
2022-09-30T12:14:04.574Z,6452.00
2022-09-30T12:15:04.557Z,6408.00
2022-09-30T12:16:04.598Z,6764.00
2022-09-30T12:17:05.625Z,7304.00
2022-09-30T12:18:04.517Z,7248.00
2022-09-30T12:19:04.531Z,7260.00
2022-09-30T12:20:04.507Z,7080.00
2022-09-30T12:21:04.509Z,6676.00
2022-09-30T12:22:04.504Z,6256.00
2022-09-30T12:23:04.483Z,6356.00
2022-09-30T12:24:04.470Z,6660.00
2022-09-30T12:25:04.455Z,6996.00
2022-09-30T12:26:04.449Z,7376.00
2022-09-30T12:27:04.442Z,7012.00
2022-09-30T12:28:04.477Z,6372.00
2022-09-30T12:29:04.425Z,6036.00
2022-09-30T12:30:04.401Z,5976.00
2022-09-30T12:31:04.392Z,6232.00
2022-09-30T12:32:04.439Z,6404.00
2022-09-30T12:33:04.405Z,6260.00
2022-09-30T12:34:04.372Z,6072.00
2022-09-30T12:35:04.352Z,5908.00
2022-09-30T12:36:04.431Z,5800.00
2022-09-30T12:37:04.398Z,6092.00